KEBS/EBS METAR and TAF weather

Enter ICAO airport designator
Station Type Date Time Source
KEBS METAR 2022/01/29 00:55 UTC NOAA

KEBS 290055Z AUTO 17008KT 10SM CLR M14/M17 A3029 RMK AO2


Station Type Date Time Source
KEBS Decoded METAR 2022/01/29 00:55 UTC NOAA

Webster City, IA, United States (KEBS) 42-26N 093-52W
Jan 28, 2022 - 07:55 PM EST / 2022.01.29 0055 UTC
Wind: from the S (170 degrees) at 9 MPH (8 KT):0
Visibility: 10 mile(s):0
Sky conditions: clear
Temperature: 6 F (-14 C)
Windchill: -7 F (-22 C):2
Dew Point: 1 F (-17 C)
Relative Humidity: 77%
Pressure (altimeter): 30.29 in. Hg (1025 hPa)
ob: KEBS 290055Z AUTO 17008KT 10SM CLR M14/M17 A3029 RMK AO2
cycle: 1

Station Type Date Time Source
KEBS TAF UTC NOAA

Error!

Example: see airport list